sensor_id;sensor_type;location;lat;lon;timestamp;temperature;humidity
19972;DHT22;10147;16.402;102.848;2023-06-05T00:00:32;25.90;99.90
19972;DHT22;10147;16.402;102.848;2023-06-05T00:03:02;25.60;99.90
19972;DHT22;10147;16.402;102.848;2023-06-05T00:05:33;25.50;99.90
19972;DHT22;10147;16.402;102.848;2023-06-05T00:08:03;25.30;99.90
19972;DHT22;10147;16.402;102.848;2023-06-05T00:10:33;25.20;99.90
19972;DHT22;10147;16.402;102.848;2023-06-05T00:13:03;25.00;99.90
19972;DHT22;10147;16.402;102.848;2023-06-05T00:15:34;25.00;99.90
19972;DHT22;10147;16.402;102.848;2023-06-05T00:18:05;25.10;99.90
19972;DHT22;10147;16.402;102.848;2023-06-05T00:20:36;25.10;99.90
19972;DHT22;10147;16.402;102.848;2023-06-05T00:23:08;24.90;99.90
19972;DHT22;10147;16.402;102.848;2023-06-05T00:25:38;25.00;99.90
19972;DHT22;10147;16.402;102.848;2023-06-05T00:28:09;24.80;99.90
19972;DHT22;10147;16.402;102.848;2023-06-05T00:30:39;24.60;99.90
19972;DHT22;10147;16.402;102.848;2023-06-05T00:33:10;24.60;99.90
19972;DHT22;10147;16.402;102.848;2023-06-05T00:35:41;24.50;99.90
19972;DHT22;10147;16.402;102.848;2023-06-05T00:38:11;24.40;99.90
19972;DHT22;10147;16.402;102.848;2023-06-05T00:40:41;24.40;99.90
19972;DHT22;10147;16.402;102.848;2023-06-05T00:43:12;24.40;99.90
19972;DHT22;10147;16.402;102.848;2023-06-05T00:45:42;24.10;99.90
19972;DHT22;10147;16.402;102.848;2023-06-05T00:48:13;24.20;99.90
19972;DHT22;10147;16.402;102.848;2023-06-05T00:50:44;24.40;99.90
19972;DHT22;10147;16.402;102.848;2023-06-05T00:53:15;24.30;99.90
19972;DHT22;10147;16.402;102.848;2023-06-05T00:55:46;24.10;99.90
19972;DHT22;10147;16.402;102.848;2023-06-05T00:58:16;24.10;99.90
19972;DHT22;10147;16.402;102.848;2023-06-05T01:00:46;24.00;99.90
19972;DHT22;10147;16.402;102.848;2023-06-05T01:03:19;23.90;99.90
19972;DHT22;10147;16.402;102.848;2023-06-05T01:05:50;24.00;99.90
19972;DHT22;10147;16.402;102.848;2023-06-05T01:08:21;24.00;99.90
19972;DHT22;10147;16.402;102.848;2023-06-05T01:10:56;23.90;99.90
19972;DHT22;10147;16.402;102.848;2023-06-05T01:13:32;23.90;99.90
19972;DHT22;10147;16.402;102.848;2023-06-05T01:16:05;24.10;99.90
19972;DHT22;10147;16.402;102.848;2023-06-05T01:18:36;24.10;99.90
19972;DHT22;10147;16.402;102.848;2023-06-05T01:21:14;24.30;99.90
19972;DHT22;10147;16.402;102.848;2023-06-05T01:23:44;24.20;99.90
19972;DHT22;10147;16.402;102.848;2023-06-05T01:26:18;24.30;99.90
19972;DHT22;10147;16.402;102.848;2023-06-05T01:28:51;24.30;99.90
19972;DHT22;10147;16.402;102.848;2023-06-05T01:31:23;24.40;99.90
19972;DHT22;10147;16.402;102.848;2023-06-05T01:34:01;24.50;99.90
19972;DHT22;10147;16.402;102.848;2023-06-05T01:36:33;24.40;99.90
19972;DHT22;10147;16.402;102.848;2023-06-05T01:39:06;24.40;99.90
19972;DHT22;10147;16.402;102.848;2023-06-05T01:41:39;24.30;99.90
19972;DHT22;10147;16.402;102.848;2023-06-05T01:44:10;24.30;99.90
19972;DHT22;10147;16.402;102.848;2023-06-05T01:46:44;24.20;99.90
19972;DHT22;10147;16.402;102.848;2023-06-05T01:49:15;24.20;99.90
19972;DHT22;10147;16.402;102.848;2023-06-05T01:51:46;24.10;99.90
19972;DHT22;10147;16.402;102.848;2023-06-05T01:54:16;24.10;99.90
19972;DHT22;10147;16.402;102.848;2023-06-05T01:56:49;24.00;99.90
19972;DHT22;10147;16.402;102.848;2023-06-05T01:59:19;24.10;99.90
19972;DHT22;10147;16.402;102.848;2023-06-05T02:01:49;24.20;99.90
19972;DHT22;10147;16.402;102.848;2023-06-05T02:04:20;24.20;99.90
19972;DHT22;10147;16.402;102.848;2023-06-05T02:06:51;24.20;99.90
19972;DHT22;10147;16.402;102.848;2023-06-05T02:09:22;24.20;99.90
19972;DHT22;10147;16.402;102.848;2023-06-05T02:11:52;24.20;99.90
19972;DHT22;10147;16.402;102.848;2023-06-05T02:14:23;24.00;99.90
19972;DHT22;10147;16.402;102.848;2023-06-05T02:16:54;24.00;99.90
19972;DHT22;10147;16.402;102.848;2023-06-05T02:19:26;23.90;99.90
19972;DHT22;10147;16.402;102.848;2023-06-05T02:21:56;23.90;99.90
19972;DHT22;10147;16.402;102.848;2023-06-05T02:24:26;23.90;99.90
19972;DHT22;10147;16.402;102.848;2023-06-05T02:26:57;23.90;99.90
19972;DHT22;10147;16.402;102.848;2023-06-05T02:29:28;24.00;99.90
19972;DHT22;10147;16.402;102.848;2023-06-05T02:31:58;24.00;99.90
19972;DHT22;10147;16.402;102.848;2023-06-05T02:34:28;24.10;99.90
19972;DHT22;10147;16.402;102.848;2023-06-05T02:36:59;24.10;99.90
19972;DHT22;10147;16.402;102.848;2023-06-05T02:39:30;24.30;99.90
19972;DHT22;10147;16.402;102.848;2023-06-05T02:42:03;24.40;99.90
19972;DHT22;10147;16.402;102.848;2023-06-05T02:44:34;24.30;99.90
19972;DHT22;10147;16.402;102.848;2023-06-05T02:47:05;24.40;99.90
19972;DHT22;10147;16.402;102.848;2023-06-05T02:49:36;24.50;99.90
19972;DHT22;10147;16.402;102.848;2023-06-05T02:52:07;24.40;99.90
19972;DHT22;10147;16.402;102.848;2023-06-05T02:54:38;24.60;99.90
19972;DHT22;10147;16.402;102.848;2023-06-05T02:57:10;24.70;99.90
19972;DHT22;10147;16.402;102.848;2023-06-05T02:59:41;24.70;99.90
19972;DHT22;10147;16.402;102.848;2023-06-05T03:02:15;24.80;99.90
19972;DHT22;10147;16.402;102.848;2023-06-05T03:04:47;24.80;99.90
19972;DHT22;10147;16.402;102.848;2023-06-05T03:07:25;24.90;99.90
19972;DHT22;10147;16.402;102.848;2023-06-05T03:09:56;24.90;99.90
19972;DHT22;10147;16.402;102.848;2023-06-05T03:12:27;25.00;99.90
19972;DHT22;10147;16.402;102.848;2023-06-05T03:15:00;25.00;99.90
19972;DHT22;10147;16.402;102.848;2023-06-05T03:17:32;25.00;99.90
19972;DHT22;10147;16.402;102.848;2023-06-05T03:20:03;25.10;99.90
19972;DHT22;10147;16.402;102.848;2023-06-05T03:22:33;24.90;99.90
19972;DHT22;10147;16.402;102.848;2023-06-05T03:25:04;25.10;99.90
19972;DHT22;10147;16.402;102.848;2023-06-05T03:27:35;25.10;99.90
19972;DHT22;10147;16.402;102.848;2023-06-05T03:30:06;25.10;99.90
19972;DHT22;10147;16.402;102.848;2023-06-05T03:32:43;25.00;99.90
19972;DHT22;10147;16.402;102.848;2023-06-05T03:35:14;25.00;99.90
19972;DHT22;10147;16.402;102.848;2023-06-05T03:37:45;25.00;99.90
19972;DHT22;10147;16.402;102.848;2023-06-05T03:40:15;25.10;99.90
19972;DHT22;10147;16.402;102.848;2023-06-05T03:42:45;25.10;99.90
19972;DHT22;10147;16.402;102.848;2023-06-05T03:45:17;25.20;99.90
19972;DHT22;10147;16.402;102.848;2023-06-05T03:47:47;25.20;99.90
19972;DHT22;10147;16.402;102.848;2023-06-05T03:50:18;25.40;99.90
19972;DHT22;10147;16.402;102.848;2023-06-05T03:52:48;25.60;99.90
19972;DHT22;10147;16.402;102.848;2023-06-05T03:55:22;25.60;99.90
19972;DHT22;10147;16.402;102.848;2023-06-05T03:57:53;25.60;99.90
19972;DHT22;10147;16.402;102.848;2023-06-05T04:00:23;25.40;99.90
19972;DHT22;10147;16.402;102.848;2023-06-05T04:02:57;25.40;99.90
19972;DHT22;10147;16.402;102.848;2023-06-05T04:05:29;25.40;99.90
19972;DHT22;10147;16.402;102.848;2023-06-05T04:08:00;25.60;99.90
19972;DHT22;10147;16.402;102.848;2023-06-05T04:10:30;25.60;99.90
19972;DHT22;10147;16.402;102.848;2023-06-05T04:13:00;25.80;99.90
19972;DHT22;10147;16.402;102.848;2023-06-05T04:15:32;25.90;99.90
19972;DHT22;10147;16.402;102.848;2023-06-05T04:18:04;25.70;99.90
19972;DHT22;10147;16.402;102.848;2023-06-05T04:20:35;25.90;99.90
19972;DHT22;10147;16.402;102.848;2023-06-05T04:23:05;25.90;99.90
19972;DHT22;10147;16.402;102.848;2023-06-05T04:25:39;26.10;99.90
19972;DHT22;10147;16.402;102.848;2023-06-05T04:28:14;26.20;99.90
19972;DHT22;10147;16.402;102.848;2023-06-05T04:30:45;26.30;99.90
19972;DHT22;10147;16.402;102.848;2023-06-05T04:33:19;26.50;99.90
19972;DHT22;10147;16.402;102.848;2023-06-05T04:35:50;26.60;99.90
19972;DHT22;10147;16.402;102.848;2023-06-05T04:38:23;26.70;99.90
19972;DHT22;10147;16.402;102.848;2023-06-05T04:40:53;26.70;99.90
19972;DHT22;10147;16.402;102.848;2023-06-05T04:43:23;26.80;99.90
19972;DHT22;10147;16.402;102.848;2023-06-05T04:45:54;26.90;99.90
19972;DHT22;10147;16.402;102.848;2023-06-05T04:48:25;27.00;99.90
19972;DHT22;10147;16.402;102.848;2023-06-05T04:50:55;27.10;99.90
19972;DHT22;10147;16.402;102.848;2023-06-05T04:53:27;27.20;99.90
19972;DHT22;10147;16.402;102.848;2023-06-05T04:56:03;27.20;99.90
19972;DHT22;10147;16.402;102.848;2023-06-05T04:58:34;27.20;99.90
19972;DHT22;10147;16.402;102.848;2023-06-05T05:01:06;27.20;99.90
19972;DHT22;10147;16.402;102.848;2023-06-05T05:03:39;27.30;99.90
19972;DHT22;10147;16.402;102.848;2023-06-05T05:06:14;27.50;99.90
19972;DHT22;10147;16.402;102.848;2023-06-05T05:08:46;27.60;99.90
19972;DHT22;10147;16.402;102.848;2023-06-05T05:11:20;27.70;99.90
19972;DHT22;10147;16.402;102.848;2023-06-05T05:13:52;27.80;99.90
19972;DHT22;10147;16.402;102.848;2023-06-05T05:16:22;27.80;99.90
19972;DHT22;10147;16.402;102.848;2023-06-05T05:18:52;27.80;99.90
19972;DHT22;10147;16.402;102.848;2023-06-05T05:21:22;27.90;99.90
19972;DHT22;10147;16.402;102.848;2023-06-05T05:23:53;27.80;99.90
19972;DHT22;10147;16.402;102.848;2023-06-05T05:26:23;28.00;99.90
19972;DHT22;10147;16.402;102.848;2023-06-05T05:28:53;28.10;99.90
19972;DHT22;10147;16.402;102.848;2023-06-05T05:31:23;28.10;99.90
19972;DHT22;10147;16.402;102.848;2023-06-05T05:33:53;28.10;99.90
19972;DHT22;10147;16.402;102.848;2023-06-05T05:36:25;28.20;99.90
19972;DHT22;10147;16.402;102.848;2023-06-05T05:38:56;28.40;99.90
19972;DHT22;10147;16.402;102.848;2023-06-05T05:41:25;28.60;99.90
19972;DHT22;10147;16.402;102.848;2023-06-05T05:43:56;28.60;99.90
19972;DHT22;10147;16.402;102.848;2023-06-05T05:46:27;28.60;99.90
19972;DHT22;10147;16.402;102.848;2023-06-05T05:48:58;28.80;99.90
19972;DHT22;10147;16.402;102.848;2023-06-05T05:51:27;28.90;99.90
19972;DHT22;10147;16.402;102.848;2023-06-05T05:53:57;29.00;99.90
19972;DHT22;10147;16.402;102.848;2023-06-05T05:56:28;28.80;99.90
19972;DHT22;10147;16.402;102.848;2023-06-05T05:58:58;28.80;99.90
19972;DHT22;10147;16.402;102.848;2023-06-05T06:01:28;28.80;99.90
19972;DHT22;10147;16.402;102.848;2023-06-05T06:03:59;28.80;99.90
19972;DHT22;10147;16.402;102.848;2023-06-05T06:06:29;28.70;99.90
19972;DHT22;10147;16.402;102.848;2023-06-05T06:08:59;28.70;99.90
19972;DHT22;10147;16.402;102.848;2023-06-05T06:11:30;28.90;99.90
19972;DHT22;10147;16.402;102.848;2023-06-05T06:14:00;28.90;99.90
19972;DHT22;10147;16.402;102.848;2023-06-05T06:16:31;29.00;99.90
19972;DHT22;10147;16.402;102.848;2023-06-05T06:19:01;29.10;99.90
19972;DHT22;10147;16.402;102.848;2023-06-05T06:21:31;29.20;99.90
19972;DHT22;10147;16.402;102.848;2023-06-05T06:24:01;29.20;99.90
19972;DHT22;10147;16.402;102.848;2023-06-05T06:26:32;29.40;99.90
19972;DHT22;10147;16.402;102.848;2023-06-05T06:29:02;29.40;99.90
19972;DHT22;10147;16.402;102.848;2023-06-05T06:31:32;29.30;99.90
19972;DHT22;10147;16.402;102.848;2023-06-05T06:34:02;29.40;99.90
19972;DHT22;10147;16.402;102.848;2023-06-05T06:36:32;29.40;99.90
19972;DHT22;10147;16.402;102.848;2023-06-05T06:39:02;29.40;99.90
19972;DHT22;10147;16.402;102.848;2023-06-05T06:41:33;29.30;99.90
19972;DHT22;10147;16.402;102.848;2023-06-05T06:44:04;29.40;99.90
19972;DHT22;10147;16.402;102.848;2023-06-05T06:46:35;29.40;99.90
19972;DHT22;10147;16.402;102.848;2023-06-05T06:49:05;29.50;99.90
19972;DHT22;10147;16.402;102.848;2023-06-05T06:51:35;29.60;99.90
19972;DHT22;10147;16.402;102.848;2023-06-05T06:54:06;29.60;99.90
19972;DHT22;10147;16.402;102.848;2023-06-05T06:56:37;29.70;99.90
19972;DHT22;10147;16.402;102.848;2023-06-05T06:59:13;29.70;99.90
19972;DHT22;10147;16.402;102.848;2023-06-05T07:02:09;29.80;99.90
19972;DHT22;10147;16.402;102.848;2023-06-05T07:04:39;30.10;99.90
19972;DHT22;10147;16.402;102.848;2023-06-05T07:07:12;30.20;99.90
19972;DHT22;10147;16.402;102.848;2023-06-05T07:09:45;30.10;99.90
19972;DHT22;10147;16.402;102.848;2023-06-05T07:12:16;30.00;99.90
19972;DHT22;10147;16.402;102.848;2023-06-05T07:14:48;30.10;99.90
19972;DHT22;10147;16.402;102.848;2023-06-05T07:17:19;30.10;99.90
19972;DHT22;10147;16.402;102.848;2023-06-05T07:19:49;30.20;99.90
19972;DHT22;10147;16.402;102.848;2023-06-05T07:22:19;30.10;99.90
19972;DHT22;10147;16.402;102.848;2023-06-05T07:24:50;30.40;99.90
19972;DHT22;10147;16.402;102.848;2023-06-05T07:27:21;30.40;99.90
19972;DHT22;10147;16.402;102.848;2023-06-05T07:29:51;30.50;99.90
19972;DHT22;10147;16.402;102.848;2023-06-05T07:32:22;30.70;99.90
19972;DHT22;10147;16.402;102.848;2023-06-05T07:34:52;30.80;99.90
19972;DHT22;10147;16.402;102.848;2023-06-05T07:37:22;31.20;99.90
19972;DHT22;10147;16.402;102.848;2023-06-05T07:39:52;31.20;99.90
19972;DHT22;10147;16.402;102.848;2023-06-05T07:42:23;30.90;99.90
19972;DHT22;10147;16.402;102.848;2023-06-05T07:44:54;30.90;99.90
19972;DHT22;10147;16.402;102.848;2023-06-05T07:47:24;30.90;99.90
19972;DHT22;10147;16.402;102.848;2023-06-05T07:49:59;30.90;99.90
19972;DHT22;10147;16.402;102.848;2023-06-05T07:52:31;30.90;99.90
19972;DHT22;10147;16.402;102.848;2023-06-05T07:55:01;30.90;99.90
19972;DHT22;10147;16.402;102.848;2023-06-05T07:57:31;31.10;99.90
19972;DHT22;10147;16.402;102.848;2023-06-05T08:00:02;31.40;99.90
19972;DHT22;10147;16.402;102.848;2023-06-05T08:02:39;31.40;99.90
19972;DHT22;10147;16.402;102.848;2023-06-05T08:05:10;31.10;99.90
19972;DHT22;10147;16.402;102.848;2023-06-05T08:07:40;31.20;99.90
19972;DHT22;10147;16.402;102.848;2023-06-05T08:10:12;31.00;99.90
19972;DHT22;10147;16.402;102.848;2023-06-05T08:12:42;31.00;99.90
19972;DHT22;10147;16.402;102.848;2023-06-05T08:15:13;31.00;99.90
19972;DHT22;10147;16.402;102.848;2023-06-05T08:17:43;30.90;99.90
19972;DHT22;10147;16.402;102.848;2023-06-05T08:20:13;30.80;99.90
19972;DHT22;10147;16.402;102.848;2023-06-05T08:22:43;30.70;99.90
19972;DHT22;10147;16.402;102.848;2023-06-05T08:25:13;30.60;99.90
19972;DHT22;10147;16.402;102.848;2023-06-05T08:27:43;30.50;99.90
19972;DHT22;10147;16.402;102.848;2023-06-05T08:30:13;30.60;99.90
19972;DHT22;10147;16.402;102.848;2023-06-05T08:32:44;30.80;99.90
19972;DHT22;10147;16.402;102.848;2023-06-05T08:35:15;30.90;99.90
19972;DHT22;10147;16.402;102.848;2023-06-05T08:37:46;31.10;99.90
19972;DHT22;10147;16.402;102.848;2023-06-05T08:40:17;31.30;99.90
19972;DHT22;10147;16.402;102.848;2023-06-05T08:42:48;31.10;99.90
19972;DHT22;10147;16.402;102.848;2023-06-05T08:45:18;31.00;99.90
19972;DHT22;10147;16.402;102.848;2023-06-05T08:47:51;31.00;99.90
19972;DHT22;10147;16.402;102.848;2023-06-05T08:50:23;31.10;99.90
19972;DHT22;10147;16.402;102.848;2023-06-05T08:52:56;31.30;99.90
19972;DHT22;10147;16.402;102.848;2023-06-05T08:55:28;31.40;99.90
19972;DHT22;10147;16.402;102.848;2023-06-05T08:57:58;31.40;99.90
19972;DHT22;10147;16.402;102.848;2023-06-05T09:00:29;31.50;99.90
19972;DHT22;10147;16.402;102.848;2023-06-05T09:02:59;31.40;99.90
19972;DHT22;10147;16.402;102.848;2023-06-05T09:05:30;31.30;99.90
19972;DHT22;10147;16.402;102.848;2023-06-05T09:07:59;31.20;99.90
19972;DHT22;10147;16.402;102.848;2023-06-05T09:10:30;31.20;99.90
19972;DHT22;10147;16.402;102.848;2023-06-05T09:13:02;31.10;99.90
19972;DHT22;10147;16.402;102.848;2023-06-05T09:15:34;31.10;99.90
19972;DHT22;10147;16.402;102.848;2023-06-05T09:18:12;31.10;99.90
19972;DHT22;10147;16.402;102.848;2023-06-05T09:20:45;31.00;99.90
19972;DHT22;10147;16.402;102.848;2023-06-05T09:23:24;30.90;99.90
19972;DHT22;10147;16.402;102.848;2023-06-05T09:26:00;30.80;99.90
19972;DHT22;10147;16.402;102.848;2023-06-05T09:28:33;30.70;99.90
19972;DHT22;10147;16.402;102.848;2023-06-05T09:31:04;30.70;99.90
19972;DHT22;10147;16.402;102.848;2023-06-05T09:33:34;30.70;99.90
19972;DHT22;10147;16.402;102.848;2023-06-05T09:36:12;30.70;99.90
19972;DHT22;10147;16.402;102.848;2023-06-05T09:38:42;30.70;99.90
19972;DHT22;10147;16.402;102.848;2023-06-05T09:41:14;30.60;99.90
19972;DHT22;10147;16.402;102.848;2023-06-05T09:43:45;30.60;99.90
19972;DHT22;10147;16.402;102.848;2023-06-05T09:46:18;30.70;99.90
19972;DHT22;10147;16.402;102.848;2023-06-05T09:48:58;30.50;99.90
19972;DHT22;10147;16.402;102.848;2023-06-05T09:51:31;30.60;99.90
19972;DHT22;10147;16.402;102.848;2023-06-05T09:54:02;30.60;99.90
19972;DHT22;10147;16.402;102.848;2023-06-05T09:56:34;30.60;99.90
19972;DHT22;10147;16.402;102.848;2023-06-05T09:59:07;30.50;99.90
19972;DHT22;10147;16.402;102.848;2023-06-05T10:01:40;30.50;99.90
19972;DHT22;10147;16.402;102.848;2023-06-05T10:04:13;30.60;99.90
19972;DHT22;10147;16.402;102.848;2023-06-05T10:06:47;30.50;99.90
19972;DHT22;10147;16.402;102.848;2023-06-05T10:09:18;30.50;99.90
19972;DHT22;10147;16.402;102.848;2023-06-05T10:11:49;30.50;99.90
19972;DHT22;10147;16.402;102.848;2023-06-05T10:14:20;30.40;99.90
19972;DHT22;10147;16.402;102.848;2023-06-05T10:16:51;30.30;99.90
19972;DHT22;10147;16.402;102.848;2023-06-05T10:19:21;30.30;99.90
19972;DHT22;10147;16.402;102.848;2023-06-05T10:21:53;30.20;99.90
19972;DHT22;10147;16.402;102.848;2023-06-05T10:24:33;30.20;99.90
19972;DHT22;10147;16.402;102.848;2023-06-05T10:30:41;30.20;99.90
19972;DHT22;10147;16.402;102.848;2023-06-05T10:33:43;30.20;99.90
19972;DHT22;10147;16.402;102.848;2023-06-05T10:39:29;30.10;99.90
19972;DHT22;10147;16.402;102.848;2023-06-05T10:42:01;30.00;99.90
19972;DHT22;10147;16.402;102.848;2023-06-05T10:44:50;29.90;99.90
19972;DHT22;10147;16.402;102.848;2023-06-05T10:47:50;30.00;99.90
19972;DHT22;10147;16.402;102.848;2023-06-05T10:50:21;29.90;99.90
19972;DHT22;10147;16.402;102.848;2023-06-05T10:52:55;29.90;99.90
19972;DHT22;10147;16.402;102.848;2023-06-05T10:55:30;29.90;99.90
19972;DHT22;10147;16.402;102.848;2023-06-05T10:58:12;29.90;99.90
19972;DHT22;10147;16.402;102.848;2023-06-05T11:03:59;29.90;99.90
19972;DHT22;10147;16.402;102.848;2023-06-05T11:06:30;29.80;99.90
19972;DHT22;10147;16.402;102.848;2023-06-05T11:09:11;29.80;99.90
19972;DHT22;10147;16.402;102.848;2023-06-05T11:12:01;29.60;99.90
19972;DHT22;10147;16.402;102.848;2023-06-05T11:14:46;29.70;99.90
19972;DHT22;10147;16.402;102.848;2023-06-05T11:17:33;29.80;99.90
19972;DHT22;10147;16.402;102.848;2023-06-05T11:20:08;29.60;99.90
19972;DHT22;10147;16.402;102.848;2023-06-05T11:23:07;29.60;99.90
19972;DHT22;10147;16.402;102.848;2023-06-05T11:25:38;29.60;99.90
19972;DHT22;10147;16.402;102.848;2023-06-05T11:28:08;29.50;99.90
19972;DHT22;10147;16.402;102.848;2023-06-05T11:30:43;29.50;99.90
19972;DHT22;10147;16.402;102.848;2023-06-05T11:33:18;29.40;99.90
19972;DHT22;10147;16.402;102.848;2023-06-05T11:35:50;29.40;99.90
19972;DHT22;10147;16.402;102.848;2023-06-05T11:38:22;29.50;99.90
19972;DHT22;10147;16.402;102.848;2023-06-05T11:40:54;29.40;99.90
19972;DHT22;10147;16.402;102.848;2023-06-05T11:43:24;29.40;99.90
19972;DHT22;10147;16.402;102.848;2023-06-05T11:45:57;29.40;99.90
19972;DHT22;10147;16.402;102.848;2023-06-05T11:48:29;29.40;99.90
19972;DHT22;10147;16.402;102.848;2023-06-05T11:51:03;29.40;99.90
19972;DHT22;10147;16.402;102.848;2023-06-05T11:53:44;29.30;99.90
19972;DHT22;10147;16.402;102.848;2023-06-05T11:56:15;29.30;99.90
19972;DHT22;10147;16.402;102.848;2023-06-05T11:58:51;29.30;99.90
19972;DHT22;10147;16.402;102.848;2023-06-05T12:01:21;29.30;99.90
19972;DHT22;10147;16.402;102.848;2023-06-05T12:04:10;29.20;99.90
19972;DHT22;10147;16.402;102.848;2023-06-05T12:06:45;29.00;99.90
19972;DHT22;10147;16.402;102.848;2023-06-05T12:09:21;28.80;99.90
19972;DHT22;10147;16.402;102.848;2023-06-05T12:11:51;28.60;99.90
19972;DHT22;10147;16.402;102.848;2023-06-05T12:14:31;28.70;99.90
19972;DHT22;10147;16.402;102.848;2023-06-05T12:17:09;28.60;99.90
19972;DHT22;10147;16.402;102.848;2023-06-05T12:19:40;28.80;99.90
19972;DHT22;10147;16.402;102.848;2023-06-05T12:22:10;28.80;99.90
19972;DHT22;10147;16.402;102.848;2023-06-05T12:24:40;28.90;99.90
19972;DHT22;10147;16.402;102.848;2023-06-05T12:27:12;29.00;99.90
19972;DHT22;10147;16.402;102.848;2023-06-05T12:29:53;29.10;99.90
19972;DHT22;10147;16.402;102.848;2023-06-05T12:32:26;29.10;99.90
19972;DHT22;10147;16.402;102.848;2023-06-05T12:34:56;29.10;99.90
19972;DHT22;10147;16.402;102.848;2023-06-05T12:37:35;29.10;99.90
19972;DHT22;10147;16.402;102.848;2023-06-05T12:40:10;29.10;99.90
19972;DHT22;10147;16.402;102.848;2023-06-05T12:42:58;29.10;99.90
19972;DHT22;10147;16.402;102.848;2023-06-05T12:45:28;29.00;99.90
19972;DHT22;10147;16.402;102.848;2023-06-05T12:48:00;29.00;99.90
19972;DHT22;10147;16.402;102.848;2023-06-05T12:50:30;29.00;99.90
19972;DHT22;10147;16.402;102.848;2023-06-05T12:53:00;28.90;99.90
19972;DHT22;10147;16.402;102.848;2023-06-05T12:55:31;28.90;99.90
19972;DHT22;10147;16.402;102.848;2023-06-05T12:58:01;29.00;99.90
19972;DHT22;10147;16.402;102.848;2023-06-05T13:00:31;28.90;99.90
19972;DHT22;10147;16.402;102.848;2023-06-05T13:03:01;28.80;99.90
19972;DHT22;10147;16.402;102.848;2023-06-05T13:05:33;28.70;99.90
19972;DHT22;10147;16.402;102.848;2023-06-05T13:08:03;28.80;99.90
19972;DHT22;10147;16.402;102.848;2023-06-05T13:10:33;28.80;99.90
19972;DHT22;10147;16.402;102.848;2023-06-05T13:13:03;28.80;99.90
19972;DHT22;10147;16.402;102.848;2023-06-05T13:15:33;28.80;99.90
19972;DHT22;10147;16.402;102.848;2023-06-05T13:18:06;28.70;99.90
19972;DHT22;10147;16.402;102.848;2023-06-05T13:20:39;28.70;99.90
19972;DHT22;10147;16.402;102.848;2023-06-05T13:23:09;28.60;99.90
19972;DHT22;10147;16.402;102.848;2023-06-05T13:25:41;28.60;99.90
19972;DHT22;10147;16.402;102.848;2023-06-05T13:28:11;28.50;99.90
19972;DHT22;10147;16.402;102.848;2023-06-05T13:30:43;28.50;99.90
19972;DHT22;10147;16.402;102.848;2023-06-05T13:33:13;28.50;99.90
19972;DHT22;10147;16.402;102.848;2023-06-05T13:35:43;28.40;99.90
19972;DHT22;10147;16.402;102.848;2023-06-05T13:38:15;28.40;99.90
19972;DHT22;10147;16.402;102.848;2023-06-05T13:40:44;28.40;99.90
19972;DHT22;10147;16.402;102.848;2023-06-05T13:43:19;28.40;99.90
19972;DHT22;10147;16.402;102.848;2023-06-05T13:45:49;28.40;99.90
19972;DHT22;10147;16.402;102.848;2023-06-05T13:48:19;28.30;99.90
19972;DHT22;10147;16.402;102.848;2023-06-05T13:50:49;28.40;99.90
19972;DHT22;10147;16.402;102.848;2023-06-05T13:53:20;28.30;99.90
19972;DHT22;10147;16.402;102.848;2023-06-05T13:55:53;28.30;99.90
19972;DHT22;10147;16.402;102.848;2023-06-05T13:58:23;28.20;99.90
19972;DHT22;10147;16.402;102.848;2023-06-05T14:00:53;28.20;99.90
19972;DHT22;10147;16.402;102.848;2023-06-05T14:03:24;28.20;99.90
19972;DHT22;10147;16.402;102.848;2023-06-05T14:05:54;28.30;99.90
19972;DHT22;10147;16.402;102.848;2023-06-05T14:08:24;28.30;99.90
19972;DHT22;10147;16.402;102.848;2023-06-05T14:10:57;28.20;99.90
19972;DHT22;10147;16.402;102.848;2023-06-05T14:13:27;28.20;99.90
19972;DHT22;10147;16.402;102.848;2023-06-05T14:15:57;28.20;99.90
19972;DHT22;10147;16.402;102.848;2023-06-05T14:18:27;28.20;99.90
19972;DHT22;10147;16.402;102.848;2023-06-05T14:20:57;28.20;99.90
19972;DHT22;10147;16.402;102.848;2023-06-05T14:23:27;28.20;99.90
19972;DHT22;10147;16.402;102.848;2023-06-05T14:25:57;28.10;99.90
19972;DHT22;10147;16.402;102.848;2023-06-05T14:28:27;28.20;99.90
19972;DHT22;10147;16.402;102.848;2023-06-05T14:30:58;28.20;99.90
19972;DHT22;10147;16.402;102.848;2023-06-05T14:33:28;28.20;99.90
19972;DHT22;10147;16.402;102.848;2023-06-05T14:35:58;28.20;99.90
19972;DHT22;10147;16.402;102.848;2023-06-05T14:38:28;28.10;99.90
19972;DHT22;10147;16.402;102.848;2023-06-05T14:40:58;28.10;99.90
19972;DHT22;10147;16.402;102.848;2023-06-05T14:43:28;28.00;99.90
19972;DHT22;10147;16.402;102.848;2023-06-05T14:45:58;28.00;99.90
19972;DHT22;10147;16.402;102.848;2023-06-05T14:48:30;28.10;99.90
19972;DHT22;10147;16.402;102.848;2023-06-05T14:51:01;28.00;99.90
19972;DHT22;10147;16.402;102.848;2023-06-05T14:53:30;28.00;99.90
19972;DHT22;10147;16.402;102.848;2023-06-05T14:56:01;27.90;99.90
19972;DHT22;10147;16.402;102.848;2023-06-05T14:58:31;28.00;99.90
19972;DHT22;10147;16.402;102.848;2023-06-05T15:01:01;28.00;99.90
19972;DHT22;10147;16.402;102.848;2023-06-05T15:03:31;28.00;99.90
19972;DHT22;10147;16.402;102.848;2023-06-05T15:06:02;28.00;99.90
19972;DHT22;10147;16.402;102.848;2023-06-05T15:08:50;28.00;99.90
19972;DHT22;10147;16.402;102.848;2023-06-05T15:11:19;27.90;99.90
19972;DHT22;10147;16.402;102.848;2023-06-05T15:13:50;27.90;99.90
19972;DHT22;10147;16.402;102.848;2023-06-05T15:16:20;27.90;99.90
19972;DHT22;10147;16.402;102.848;2023-06-05T15:19:07;27.90;99.90
19972;DHT22;10147;16.402;102.848;2023-06-05T15:21:37;28.00;99.90
19972;DHT22;10147;16.402;102.848;2023-06-05T15:24:08;27.70;99.90
19972;DHT22;10147;16.402;102.848;2023-06-05T15:26:38;27.60;99.90
19972;DHT22;10147;16.402;102.848;2023-06-05T15:29:08;27.50;99.90
19972;DHT22;10147;16.402;102.848;2023-06-05T15:31:38;27.50;99.90
19972;DHT22;10147;16.402;102.848;2023-06-05T15:34:08;27.50;99.90
19972;DHT22;10147;16.402;102.848;2023-06-05T15:36:38;27.50;99.90
19972;DHT22;10147;16.402;102.848;2023-06-05T15:39:08;27.50;99.90
19972;DHT22;10147;16.402;102.848;2023-06-05T15:41:40;27.50;99.90